sensor_id;sensor_type;location;lat;lon;timestamp;P1;durP1;ratioP1;P2;durP2;ratioP2
12110;SDS011;6119;52.372;8.990;2023-04-15T00:02:41;4.37;;;3.63;;
12110;SDS011;6119;52.372;8.990;2023-04-15T00:05:28;4.73;;;3.27;;
12110;SDS011;6119;52.372;8.990;2023-04-15T00:08:15;4.40;;;3.37;;
12110;SDS011;6119;52.372;8.990;2023-04-15T00:11:02;4.17;;;3.50;;
12110;SDS011;6119;52.372;8.990;2023-04-15T00:13:51;4.07;;;3.57;;
12110;SDS011;6119;52.372;8.990;2023-04-15T00:16:38;4.80;;;3.60;;
12110;SDS011;6119;52.372;8.990;2023-04-15T00:19:25;4.63;;;3.63;;
12110;SDS011;6119;52.372;8.990;2023-04-15T00:22:11;3.93;;;3.43;;
12110;SDS011;6119;52.372;8.990;2023-04-15T00:24:58;4.00;;;3.30;;
12110;SDS011;6119;52.372;8.990;2023-04-15T00:27:45;4.70;;;3.60;;
12110;SDS011;6119;52.372;8.990;2023-04-15T00:30:32;4.00;;;3.53;;
12110;SDS011;6119;52.372;8.990;2023-04-15T00:33:19;4.40;;;3.60;;
12110;SDS011;6119;52.372;8.990;2023-04-15T00:36:05;5.87;;;3.53;;
12110;SDS011;6119;52.372;8.990;2023-04-15T00:38:53;3.80;;;3.30;;
12110;SDS011;6119;52.372;8.990;2023-04-15T00:41:40;4.37;;;3.73;;
12110;SDS011;6119;52.372;8.990;2023-04-15T00:44:27;3.83;;;3.37;;
12110;SDS011;6119;52.372;8.990;2023-04-15T00:47:15;5.00;;;3.53;;
12110;SDS011;6119;52.372;8.990;2023-04-15T00:50:03;5.00;;;3.67;;
12110;SDS011;6119;52.372;8.990;2023-04-15T00:52:50;4.47;;;3.83;;
12110;SDS011;6119;52.372;8.990;2023-04-15T00:55:36;4.40;;;3.80;;
12110;SDS011;6119;52.372;8.990;2023-04-15T00:58:23;4.17;;;3.73;;
12110;SDS011;6119;52.372;8.990;2023-04-15T01:01:11;5.07;;;3.73;;
12110;SDS011;6119;52.372;8.990;2023-04-15T01:04:00;4.77;;;3.97;;
12110;SDS011;6119;52.372;8.990;2023-04-15T01:06:47;4.63;;;3.73;;
12110;SDS011;6119;52.372;8.990;2023-04-15T01:09:33;5.10;;;4.17;;
12110;SDS011;6119;52.372;8.990;2023-04-15T01:12:20;6.17;;;3.93;;
12110;SDS011;6119;52.372;8.990;2023-04-15T01:15:07;6.33;;;3.70;;
12110;SDS011;6119;52.372;8.990;2023-04-15T01:17:55;5.80;;;3.87;;
12110;SDS011;6119;52.372;8.990;2023-04-15T01:20:44;5.10;;;4.10;;
12110;SDS011;6119;52.372;8.990;2023-04-15T01:23:31;4.30;;;3.90;;
12110;SDS011;6119;52.372;8.990;2023-04-15T01:26:19;6.13;;;3.83;;
12110;SDS011;6119;52.372;8.990;2023-04-15T01:29:07;7.20;;;3.90;;
12110;SDS011;6119;52.372;8.990;2023-04-15T01:31:54;5.17;;;4.30;;
12110;SDS011;6119;52.372;8.990;2023-04-15T01:34:41;5.90;;;4.60;;
12110;SDS011;6119;52.372;8.990;2023-04-15T01:37:28;6.13;;;4.13;;
12110;SDS011;6119;52.372;8.990;2023-04-15T01:40:15;4.77;;;4.13;;
12110;SDS011;6119;52.372;8.990;2023-04-15T01:43:02;4.83;;;4.07;;
12110;SDS011;6119;52.372;8.990;2023-04-15T01:45:49;5.53;;;4.13;;
12110;SDS011;6119;52.372;8.990;2023-04-15T01:48:36;5.03;;;4.10;;
12110;SDS011;6119;52.372;8.990;2023-04-15T01:51:22;5.13;;;3.83;;
12110;SDS011;6119;52.372;8.990;2023-04-15T01:54:08;4.93;;;4.40;;
12110;SDS011;6119;52.372;8.990;2023-04-15T01:56:55;6.57;;;4.53;;
12110;SDS011;6119;52.372;8.990;2023-04-15T01:59:43;5.80;;;4.37;;
12110;SDS011;6119;52.372;8.990;2023-04-15T02:02:29;6.50;;;4.60;;
12110;SDS011;6119;52.372;8.990;2023-04-15T02:05:17;4.73;;;3.97;;
12110;SDS011;6119;52.372;8.990;2023-04-15T02:08:03;5.80;;;4.87;;
12110;SDS011;6119;52.372;8.990;2023-04-15T02:10:50;5.87;;;4.47;;
12110;SDS011;6119;52.372;8.990;2023-04-15T02:13:36;6.00;;;4.73;;
12110;SDS011;6119;52.372;8.990;2023-04-15T02:16:24;5.80;;;4.80;;
12110;SDS011;6119;52.372;8.990;2023-04-15T02:19:11;6.53;;;5.00;;
12110;SDS011;6119;52.372;8.990;2023-04-15T02:21:57;5.90;;;5.10;;
12110;SDS011;6119;52.372;8.990;2023-04-15T02:24:45;8.17;;;5.00;;
12110;SDS011;6119;52.372;8.990;2023-04-15T02:27:31;6.30;;;5.03;;
12110;SDS011;6119;52.372;8.990;2023-04-15T02:30:18;6.67;;;4.53;;
12110;SDS011;6119;52.372;8.990;2023-04-15T02:33:06;5.73;;;4.97;;
12110;SDS011;6119;52.372;8.990;2023-04-15T02:35:53;5.77;;;4.80;;
12110;SDS011;6119;52.372;8.990;2023-04-15T02:38:39;6.23;;;4.77;;
12110;SDS011;6119;52.372;8.990;2023-04-15T02:41:27;7.10;;;5.30;;
12110;SDS011;6119;52.372;8.990;2023-04-15T02:44:15;8.03;;;5.43;;
12110;SDS011;6119;52.372;8.990;2023-04-15T02:47:04;9.87;;;5.50;;
12110;SDS011;6119;52.372;8.990;2023-04-15T02:49:52;6.20;;;5.10;;
12110;SDS011;6119;52.372;8.990;2023-04-15T02:52:39;7.23;;;5.60;;
12110;SDS011;6119;52.372;8.990;2023-04-15T02:55:26;7.53;;;5.83;;
12110;SDS011;6119;52.372;8.990;2023-04-15T02:58:12;8.83;;;5.97;;
12110;SDS011;6119;52.372;8.990;2023-04-15T03:00:59;7.70;;;6.27;;
12110;SDS011;6119;52.372;8.990;2023-04-15T03:03:46;8.83;;;6.07;;
12110;SDS011;6119;52.372;8.990;2023-04-15T03:06:34;7.33;;;6.00;;
12110;SDS011;6119;52.372;8.990;2023-04-15T03:09:21;9.20;;;7.00;;
12110;SDS011;6119;52.372;8.990;2023-04-15T03:12:07;8.53;;;6.87;;
12110;SDS011;6119;52.372;8.990;2023-04-15T03:14:54;8.50;;;6.97;;
12110;SDS011;6119;52.372;8.990;2023-04-15T03:17:41;6.57;;;5.80;;
12110;SDS011;6119;52.372;8.990;2023-04-15T03:20:28;8.60;;;6.37;;
12110;SDS011;6119;52.372;8.990;2023-04-15T03:23:15;10.90;;;7.37;;
12110;SDS011;6119;52.372;8.990;2023-04-15T03:26:02;10.00;;;7.37;;
12110;SDS011;6119;52.372;8.990;2023-04-15T03:28:49;10.93;;;6.70;;
12110;SDS011;6119;52.372;8.990;2023-04-15T03:31:36;9.73;;;7.07;;
12110;SDS011;6119;52.372;8.990;2023-04-15T03:34:23;10.10;;;6.73;;
12110;SDS011;6119;52.372;8.990;2023-04-15T03:37:09;11.03;;;7.67;;
12110;SDS011;6119;52.372;8.990;2023-04-15T03:39:57;10.37;;;7.23;;
12110;SDS011;6119;52.372;8.990;2023-04-15T03:42:44;10.43;;;7.50;;
12110;SDS011;6119;52.372;8.990;2023-04-15T03:45:30;11.20;;;7.80;;
12110;SDS011;6119;52.372;8.990;2023-04-15T03:48:17;11.53;;;7.30;;
12110;SDS011;6119;52.372;8.990;2023-04-15T03:51:03;10.80;;;7.17;;
12110;SDS011;6119;52.372;8.990;2023-04-15T03:53:50;11.63;;;8.40;;
12110;SDS011;6119;52.372;8.990;2023-04-15T03:56:38;12.10;;;8.40;;
12110;SDS011;6119;52.372;8.990;2023-04-15T03:59:25;13.43;;;9.10;;
12110;SDS011;6119;52.372;8.990;2023-04-15T04:02:12;11.03;;;8.23;;
12110;SDS011;6119;52.372;8.990;2023-04-15T04:04:59;14.80;;;9.47;;
12110;SDS011;6119;52.372;8.990;2023-04-15T04:07:46;11.33;;;7.70;;
12110;SDS011;6119;52.372;8.990;2023-04-15T04:10:32;11.20;;;7.63;;
12110;SDS011;6119;52.372;8.990;2023-04-15T04:13:20;13.33;;;7.90;;
12110;SDS011;6119;52.372;8.990;2023-04-15T04:16:07;12.43;;;8.70;;
12110;SDS011;6119;52.372;8.990;2023-04-15T04:18:53;11.33;;;8.30;;
12110;SDS011;6119;52.372;8.990;2023-04-15T04:21:40;12.07;;;9.00;;
12110;SDS011;6119;52.372;8.990;2023-04-15T04:24:26;10.77;;;8.37;;
12110;SDS011;6119;52.372;8.990;2023-04-15T04:27:13;11.17;;;7.83;;
12110;SDS011;6119;52.372;8.990;2023-04-15T04:30:01;13.60;;;8.10;;
12110;SDS011;6119;52.372;8.990;2023-04-15T04:32:48;11.70;;;8.50;;
12110;SDS011;6119;52.372;8.990;2023-04-15T04:35:36;11.80;;;8.57;;
12110;SDS011;6119;52.372;8.990;2023-04-15T04:38:22;14.13;;;8.80;;
12110;SDS011;6119;52.372;8.990;2023-04-15T04:41:08;12.00;;;8.23;;
12110;SDS011;6119;52.372;8.990;2023-04-15T04:43:55;12.60;;;8.87;;
12110;SDS011;6119;52.372;8.990;2023-04-15T04:46:43;13.10;;;9.33;;
12110;SDS011;6119;52.372;8.990;2023-04-15T04:49:29;15.87;;;9.10;;
12110;SDS011;6119;52.372;8.990;2023-04-15T04:52:16;13.03;;;8.90;;
12110;SDS011;6119;52.372;8.990;2023-04-15T04:55:03;11.83;;;8.70;;
12110;SDS011;6119;52.372;8.990;2023-04-15T04:57:50;14.67;;;9.13;;
12110;SDS011;6119;52.372;8.990;2023-04-15T05:00:37;10.87;;;8.20;;
12110;SDS011;6119;52.372;8.990;2023-04-15T05:03:26;11.97;;;8.73;;
12110;SDS011;6119;52.372;8.990;2023-04-15T05:06:13;11.83;;;8.87;;
12110;SDS011;6119;52.372;8.990;2023-04-15T05:08:59;10.57;;;8.00;;
12110;SDS011;6119;52.372;8.990;2023-04-15T05:11:46;12.00;;;8.20;;
12110;SDS011;6119;52.372;8.990;2023-04-15T05:14:33;14.37;;;9.00;;
12110;SDS011;6119;52.372;8.990;2023-04-15T05:17:19;12.27;;;8.77;;
12110;SDS011;6119;52.372;8.990;2023-04-15T05:20:08;12.03;;;8.93;;
12110;SDS011;6119;52.372;8.990;2023-04-15T05:22:55;13.13;;;9.27;;
12110;SDS011;6119;52.372;8.990;2023-04-15T05:25:42;12.97;;;8.43;;
12110;SDS011;6119;52.372;8.990;2023-04-15T05:28:29;12.43;;;8.63;;
12110;SDS011;6119;52.372;8.990;2023-04-15T05:31:15;13.00;;;8.20;;
12110;SDS011;6119;52.372;8.990;2023-04-15T05:34:02;12.43;;;8.37;;
12110;SDS011;6119;52.372;8.990;2023-04-15T05:36:50;11.57;;;8.57;;
12110;SDS011;6119;52.372;8.990;2023-04-15T05:39:37;11.63;;;8.30;;
12110;SDS011;6119;52.372;8.990;2023-04-15T05:42:23;11.90;;;9.00;;
12110;SDS011;6119;52.372;8.990;2023-04-15T05:45:10;14.57;;;9.53;;
12110;SDS011;6119;52.372;8.990;2023-04-15T05:47:57;12.97;;;9.17;;
12110;SDS011;6119;52.372;8.990;2023-04-15T05:50:44;14.40;;;9.33;;
12110;SDS011;6119;52.372;8.990;2023-04-15T05:53:32;13.37;;;8.63;;
12110;SDS011;6119;52.372;8.990;2023-04-15T05:56:18;14.57;;;9.03;;
12110;SDS011;6119;52.372;8.990;2023-04-15T05:59:05;13.60;;;9.10;;
12110;SDS011;6119;52.372;8.990;2023-04-15T06:01:52;13.57;;;9.60;;
12110;SDS011;6119;52.372;8.990;2023-04-15T06:04:39;14.80;;;9.50;;
12110;SDS011;6119;52.372;8.990;2023-04-15T06:07:26;14.43;;;10.33;;
12110;SDS011;6119;52.372;8.990;2023-04-15T06:10:14;18.57;;;10.57;;
12110;SDS011;6119;52.372;8.990;2023-04-15T06:13:01;13.13;;;9.50;;
12110;SDS011;6119;52.372;8.990;2023-04-15T06:15:48;13.93;;;10.23;;
12110;SDS011;6119;52.372;8.990;2023-04-15T06:18:34;15.03;;;10.10;;
12110;SDS011;6119;52.372;8.990;2023-04-15T06:21:21;16.03;;;10.70;;
12110;SDS011;6119;52.372;8.990;2023-04-15T06:24:07;15.23;;;10.00;;
12110;SDS011;6119;52.372;8.990;2023-04-15T06:26:55;15.83;;;10.83;;
12110;SDS011;6119;52.372;8.990;2023-04-15T06:29:42;15.30;;;9.60;;
12110;SDS011;6119;52.372;8.990;2023-04-15T06:32:29;12.10;;;9.57;;
12110;SDS011;6119;52.372;8.990;2023-04-15T06:35:15;13.70;;;9.10;;
12110;SDS011;6119;52.372;8.990;2023-04-15T06:38:02;14.13;;;9.97;;
12110;SDS011;6119;52.372;8.990;2023-04-15T06:40:48;16.47;;;10.87;;
12110;SDS011;6119;52.372;8.990;2023-04-15T06:43:36;18.70;;;11.00;;
12110;SDS011;6119;52.372;8.990;2023-04-15T06:46:23;15.50;;;10.30;;
12110;SDS011;6119;52.372;8.990;2023-04-15T06:49:10;18.10;;;10.40;;
12110;SDS011;6119;52.372;8.990;2023-04-15T06:51:56;14.17;;;10.10;;
12110;SDS011;6119;52.372;8.990;2023-04-15T06:54:44;13.93;;;10.37;;
12110;SDS011;6119;52.372;8.990;2023-04-15T06:57:31;13.37;;;10.00;;
12110;SDS011;6119;52.372;8.990;2023-04-15T07:00:20;14.40;;;9.83;;
12110;SDS011;6119;52.372;8.990;2023-04-15T07:03:06;15.43;;;10.53;;
12110;SDS011;6119;52.372;8.990;2023-04-15T07:05:55;14.90;;;9.60;;
12110;SDS011;6119;52.372;8.990;2023-04-15T07:08:42;14.63;;;10.17;;
12110;SDS011;6119;52.372;8.990;2023-04-15T07:11:28;16.10;;;10.13;;
12110;SDS011;6119;52.372;8.990;2023-04-15T07:14:15;17.97;;;11.00;;
12110;SDS011;6119;52.372;8.990;2023-04-15T07:17:03;15.07;;;10.60;;
12110;SDS011;6119;52.372;8.990;2023-04-15T07:19:50;15.37;;;10.03;;
12110;SDS011;6119;52.372;8.990;2023-04-15T07:22:37;14.13;;;9.87;;
12110;SDS011;6119;52.372;8.990;2023-04-15T07:25:23;12.43;;;9.60;;
12110;SDS011;6119;52.372;8.990;2023-04-15T07:28:10;14.27;;;10.37;;
12110;SDS011;6119;52.372;8.990;2023-04-15T07:30:56;15.83;;;10.60;;
12110;SDS011;6119;52.372;8.990;2023-04-15T07:33:44;15.07;;;10.60;;
12110;SDS011;6119;52.372;8.990;2023-04-15T07:36:31;20.73;;;12.10;;
12110;SDS011;6119;52.372;8.990;2023-04-15T07:39:18;15.83;;;10.60;;
12110;SDS011;6119;52.372;8.990;2023-04-15T07:42:04;18.00;;;11.43;;
12110;SDS011;6119;52.372;8.990;2023-04-15T07:44:51;15.33;;;10.73;;
12110;SDS011;6119;52.372;8.990;2023-04-15T07:47:38;15.53;;;10.83;;
12110;SDS011;6119;52.372;8.990;2023-04-15T07:50:27;15.03;;;10.97;;
12110;SDS011;6119;52.372;8.990;2023-04-15T07:53:14;17.33;;;11.47;;
12110;SDS011;6119;52.372;8.990;2023-04-15T07:56:00;17.87;;;11.50;;
12110;SDS011;6119;52.372;8.990;2023-04-15T07:58:46;14.77;;;10.70;;
12110;SDS011;6119;52.372;8.990;2023-04-15T08:01:33;15.30;;;10.50;;
12110;SDS011;6119;52.372;8.990;2023-04-15T08:04:20;17.73;;;11.07;;
12110;SDS011;6119;52.372;8.990;2023-04-15T08:07:09;18.23;;;11.10;;
12110;SDS011;6119;52.372;8.990;2023-04-15T08:09:55;17.87;;;11.37;;
12110;SDS011;6119;52.372;8.990;2023-04-15T08:12:41;16.60;;;11.00;;
12110;SDS011;6119;52.372;8.990;2023-04-15T08:15:28;16.07;;;11.07;;
12110;SDS011;6119;52.372;8.990;2023-04-15T08:18:16;19.00;;;10.83;;
12110;SDS011;6119;52.372;8.990;2023-04-15T08:21:03;19.50;;;13.33;;
12110;SDS011;6119;52.372;8.990;2023-04-15T08:23:51;15.80;;;10.80;;
12110;SDS011;6119;52.372;8.990;2023-04-15T08:26:38;16.37;;;11.50;;
12110;SDS011;6119;52.372;8.990;2023-04-15T08:29:25;19.43;;;13.47;;
12110;SDS011;6119;52.372;8.990;2023-04-15T08:32:12;18.60;;;13.17;;
12110;SDS011;6119;52.372;8.990;2023-04-15T08:34:58;14.73;;;10.47;;
12110;SDS011;6119;52.372;8.990;2023-04-15T08:37:45;15.63;;;11.07;;
12110;SDS011;6119;52.372;8.990;2023-04-15T08:40:34;15.27;;;11.47;;
12110;SDS011;6119;52.372;8.990;2023-04-15T08:43:27;15.87;;;10.77;;
12110;SDS011;6119;52.372;8.990;2023-04-15T08:46:18;15.37;;;10.53;;
12110;SDS011;6119;52.372;8.990;2023-04-15T08:49:05;13.17;;;10.03;;
12110;SDS011;6119;52.372;8.990;2023-04-15T08:51:56;14.63;;;10.17;;
12110;SDS011;6119;52.372;8.990;2023-04-15T08:54:45;13.67;;;10.23;;
12110;SDS011;6119;52.372;8.990;2023-04-15T08:57:34;12.57;;;9.23;;
12110;SDS011;6119;52.372;8.990;2023-04-15T09:00:23;12.23;;;9.13;;
12110;SDS011;6119;52.372;8.990;2023-04-15T09:03:11;13.07;;;9.43;;
12110;SDS011;6119;52.372;8.990;2023-04-15T09:05:58;14.80;;;9.67;;
12110;SDS011;6119;52.372;8.990;2023-04-15T09:08:45;14.63;;;9.10;;
12110;SDS011;6119;52.372;8.990;2023-04-15T09:11:32;11.63;;;8.93;;
12110;SDS011;6119;52.372;8.990;2023-04-15T09:14:20;14.33;;;9.80;;
12110;SDS011;6119;52.372;8.990;2023-04-15T09:17:07;12.30;;;9.40;;
12110;SDS011;6119;52.372;8.990;2023-04-15T09:20:06;29.37;;;18.80;;
12110;SDS011;6119;52.372;8.990;2023-04-15T09:22:53;12.67;;;9.50;;
12110;SDS011;6119;52.372;8.990;2023-04-15T09:25:40;15.87;;;11.50;;
12110;SDS011;6119;52.372;8.990;2023-04-15T09:28:27;20.63;;;15.90;;
12110;SDS011;6119;52.372;8.990;2023-04-15T09:31:15;19.07;;;13.90;;
12110;SDS011;6119;52.372;8.990;2023-04-15T09:34:03;15.70;;;10.30;;
12110;SDS011;6119;52.372;8.990;2023-04-15T09:36:56;11.70;;;9.13;;
12110;SDS011;6119;52.372;8.990;2023-04-15T09:39:46;12.10;;;9.17;;
12110;SDS011;6119;52.372;8.990;2023-04-15T09:42:34;12.47;;;9.20;;
12110;SDS011;6119;52.372;8.990;2023-04-15T09:45:22;10.77;;;8.47;;
12110;SDS011;6119;52.372;8.990;2023-04-15T09:48:15;10.90;;;8.40;;
12110;SDS011;6119;52.372;8.990;2023-04-15T09:51:04;9.90;;;8.03;;
12110;SDS011;6119;52.372;8.990;2023-04-15T09:53:53;9.87;;;8.40;;
12110;SDS011;6119;52.372;8.990;2023-04-15T09:56:41;10.30;;;8.17;;
12110;SDS011;6119;52.372;8.990;2023-04-15T09:59:29;8.53;;;7.47;;
12110;SDS011;6119;52.372;8.990;2023-04-15T10:02:18;10.37;;;7.93;;
12110;SDS011;6119;52.372;8.990;2023-04-15T10:05:07;8.03;;;7.17;;
12110;SDS011;6119;52.372;8.990;2023-04-15T10:07:56;8.23;;;7.30;;
12110;SDS011;6119;52.372;8.990;2023-04-15T10:10:44;8.33;;;7.20;;
12110;SDS011;6119;52.372;8.990;2023-04-15T10:13:31;7.60;;;6.77;;
12110;SDS011;6119;52.372;8.990;2023-04-15T10:16:22;9.03;;;7.33;;
12110;SDS011;6119;52.372;8.990;2023-04-15T10:19:12;19.23;;;16.33;;
12110;SDS011;6119;52.372;8.990;2023-04-15T10:22:02;12.67;;;11.33;;
12110;SDS011;6119;52.372;8.990;2023-04-15T10:24:49;12.00;;;10.70;;
12110;SDS011;6119;52.372;8.990;2023-04-15T10:27:38;13.27;;;10.97;;
12110;SDS011;6119;52.372;8.990;2023-04-15T10:30:26;9.20;;;8.27;;
12110;SDS011;6119;52.372;8.990;2023-04-15T10:33:15;8.30;;;7.40;;
12110;SDS011;6119;52.372;8.990;2023-04-15T10:36:04;8.63;;;7.63;;
12110;SDS011;6119;52.372;8.990;2023-04-15T10:38:53;7.40;;;6.53;;
12110;SDS011;6119;52.372;8.990;2023-04-15T10:41:39;7.67;;;6.87;;
12110;SDS011;6119;52.372;8.990;2023-04-15T10:44:27;6.70;;;5.97;;
12110;SDS011;6119;52.372;8.990;2023-04-15T10:47:14;6.97;;;6.27;;
12110;SDS011;6119;52.372;8.990;2023-04-15T10:50:04;6.90;;;6.20;;
12110;SDS011;6119;52.372;8.990;2023-04-15T10:52:52;5.97;;;5.37;;
12110;SDS011;6119;52.372;8.990;2023-04-15T10:55:39;7.00;;;6.23;;
12110;SDS011;6119;52.372;8.990;2023-04-15T10:58:26;6.37;;;5.77;;
12110;SDS011;6119;52.372;8.990;2023-04-15T11:04:52;5.60;;;5.10;;
12110;SDS011;6119;52.372;8.990;2023-04-15T11:07:41;6.43;;;5.83;;
12110;SDS011;6119;52.372;8.990;2023-04-15T11:13:46;6.27;;;5.67;;
12110;SDS011;6119;52.372;8.990;2023-04-15T11:16:41;5.70;;;5.00;;
12110;SDS011;6119;52.372;8.990;2023-04-15T11:19:34;5.90;;;5.30;;
12110;SDS011;6119;52.372;8.990;2023-04-15T11:22:22;6.07;;;5.47;;
12110;SDS011;6119;52.372;8.990;2023-04-15T11:25:09;6.00;;;5.33;;
12110;SDS011;6119;52.372;8.990;2023-04-15T11:27:57;6.73;;;5.77;;
12110;SDS011;6119;52.372;8.990;2023-04-15T11:30:45;5.80;;;5.20;;
12110;SDS011;6119;52.372;8.990;2023-04-15T11:33:32;6.70;;;5.83;;
12110;SDS011;6119;52.372;8.990;2023-04-15T11:36:19;5.87;;;5.10;;
12110;SDS011;6119;52.372;8.990;2023-04-15T11:39:06;6.73;;;5.80;;
12110;SDS011;6119;52.372;8.990;2023-04-15T11:41:52;7.03;;;6.30;;
12110;SDS011;6119;52.372;8.990;2023-04-15T11:44:41;6.73;;;6.03;;
12110;SDS011;6119;52.372;8.990;2023-04-15T11:47:27;6.90;;;5.87;;
12110;SDS011;6119;52.372;8.990;2023-04-15T11:50:15;7.87;;;6.60;;
12110;SDS011;6119;52.372;8.990;2023-04-15T11:53:03;7.60;;;6.80;;
12110;SDS011;6119;52.372;8.990;2023-04-15T11:55:52;7.43;;;6.43;;
12110;SDS011;6119;52.372;8.990;2023-04-15T11:58:39;14.17;;;11.17;;
12110;SDS011;6119;52.372;8.990;2023-04-15T12:01:32;10.97;;;9.37;;
12110;SDS011;6119;52.372;8.990;2023-04-15T12:04:19;9.30;;;8.40;;
12110;SDS011;6119;52.372;8.990;2023-04-15T12:07:09;10.30;;;9.23;;
12110;SDS011;6119;52.372;8.990;2023-04-15T12:09:56;11.67;;;8.60;;
12110;SDS011;6119;52.372;8.990;2023-04-15T12:12:47;12.43;;;10.30;;
12110;SDS011;6119;52.372;8.990;2023-04-15T12:15:36;19.03;;;16.97;;
12110;SDS011;6119;52.372;8.990;2023-04-15T12:18:24;13.33;;;11.37;;
12110;SDS011;6119;52.372;8.990;2023-04-15T12:21:11;16.57;;;14.20;;
12110;SDS011;6119;52.372;8.990;2023-04-15T12:24:00;15.27;;;8.83;;
12110;SDS011;6119;52.372;8.990;2023-04-15T12:26:49;14.67;;;13.10;;
12110;SDS011;6119;52.372;8.990;2023-04-15T12:29:37;13.80;;;11.37;;
12110;SDS011;6119;52.372;8.990;2023-04-15T12:32:25;11.13;;;9.67;;
12110;SDS011;6119;52.372;8.990;2023-04-15T12:35:13;15.03;;;11.03;;
12110;SDS011;6119;52.372;8.990;2023-04-15T12:38:00;12.80;;;10.37;;
12110;SDS011;6119;52.372;8.990;2023-04-15T12:40:47;13.10;;;9.57;;
12110;SDS011;6119;52.372;8.990;2023-04-15T12:43:33;12.10;;;9.97;;
12110;SDS011;6119;52.372;8.990;2023-04-15T12:46:20;12.07;;;9.57;;
12110;SDS011;6119;52.372;8.990;2023-04-15T12:49:07;12.90;;;9.47;;
12110;SDS011;6119;52.372;8.990;2023-04-15T12:51:56;14.87;;;10.10;;
12110;SDS011;6119;52.372;8.990;2023-04-15T12:54:44;13.47;;;10.33;;
12110;SDS011;6119;52.372;8.990;2023-04-15T12:57:31;13.37;;;9.73;;
12110;SDS011;6119;52.372;8.990;2023-04-15T13:00:17;13.37;;;10.00;;
12110;SDS011;6119;52.372;8.990;2023-04-15T13:03:04;13.60;;;10.27;;
12110;SDS011;6119;52.372;8.990;2023-04-15T13:05:51;12.43;;;9.90;;
12110;SDS011;6119;52.372;8.990;2023-04-15T13:08:39;14.27;;;10.60;;
12110;SDS011;6119;52.372;8.990;2023-04-15T13:11:41;20.97;;;15.63;;
12110;SDS011;6119;52.372;8.990;2023-04-15T13:14:27;17.83;;;13.23;;
12110;SDS011;6119;52.372;8.990;2023-04-15T13:17:14;15.30;;;10.90;;
12110;SDS011;6119;52.372;8.990;2023-04-15T13:20:04;15.93;;;12.67;;
12110;SDS011;6119;52.372;8.990;2023-04-15T13:22:52;17.87;;;13.07;;
12110;SDS011;6119;52.372;8.990;2023-04-15T13:25:40;18.00;;;12.70;;
12110;SDS011;6119;52.372;8.990;2023-04-15T13:28:27;16.83;;;11.70;;
12110;SDS011;6119;52.372;8.990;2023-04-15T13:31:13;21.77;;;13.87;;
12110;SDS011;6119;52.372;8.990;2023-04-15T13:34:00;20.53;;;13.60;;
12110;SDS011;6119;52.372;8.990;2023-04-15T13:36:48;18.77;;;12.77;;
12110;SDS011;6119;52.372;8.990;2023-04-15T13:39:34;19.87;;;13.33;;
12110;SDS011;6119;52.372;8.990;2023-04-15T13:42:22;17.17;;;12.57;;
12110;SDS011;6119;52.372;8.990;2023-04-15T13:45:09;22.33;;;13.90;;
12110;SDS011;6119;52.372;8.990;2023-04-15T13:47:56;22.23;;;13.43;;
12110;SDS011;6119;52.372;8.990;2023-04-15T13:50:42;20.13;;;12.63;;
12110;SDS011;6119;52.372;8.990;2023-04-15T13:53:29;18.83;;;13.17;;
12110;SDS011;6119;52.372;8.990;2023-04-15T13:56:23;20.00;;;13.13;;
12110;SDS011;6119;52.372;8.990;2023-04-15T13:59:11;23.97;;;13.37;;
12110;SDS011;6119;52.372;8.990;2023-04-15T14:01:58;24.37;;;13.63;;
12110;SDS011;6119;52.372;8.990;2023-04-15T14:04:45;24.00;;;14.47;;
12110;SDS011;6119;52.372;8.990;2023-04-15T14:07:31;20.03;;;14.13;;
12110;SDS011;6119;52.372;8.990;2023-04-15T14:10:18;25.17;;;15.67;;
12110;SDS011;6119;52.372;8.990;2023-04-15T14:13:05;32.43;;;20.07;;
12110;SDS011;6119;52.372;8.990;2023-04-15T14:15:52;44.67;;;26.03;;
12110;SDS011;6119;52.372;8.990;2023-04-15T14:18:39;26.90;;;16.27;;
12110;SDS011;6119;52.372;8.990;2023-04-15T14:21:26;29.37;;;17.27;;
12110;SDS011;6119;52.372;8.990;2023-04-15T14:24:13;30.60;;;17.83;;
12110;SDS011;6119;52.372;8.990;2023-04-15T14:27:00;33.83;;;20.97;;
12110;SDS011;6119;52.372;8.990;2023-04-15T14:29:47;28.33;;;17.87;;
12110;SDS011;6119;52.372;8.990;2023-04-15T14:32:35;31.43;;;17.53;;
12110;SDS011;6119;52.372;8.990;2023-04-15T14:35:22;30.80;;;18.67;;
12110;SDS011;6119;52.372;8.990;2023-04-15T14:38:10;30.47;;;17.37;;
12110;SDS011;6119;52.372;8.990;2023-04-15T14:40:57;38.43;;;20.93;;
12110;SDS011;6119;52.372;8.990;2023-04-15T14:43:44;35.70;;;21.23;;
12110;SDS011;6119;52.372;8.990;2023-04-15T14:46:30;37.13;;;19.57;;
12110;SDS011;6119;52.372;8.990;2023-04-15T14:49:19;37.60;;;22.07;;
12110;SDS011;6119;52.372;8.990;2023-04-15T14:52:06;40.70;;;22.80;;
12110;SDS011;6119;52.372;8.990;2023-04-15T14:54:52;33.77;;;20.00;;
12110;SDS011;6119;52.372;8.990;2023-04-15T14:57:39;33.90;;;19.40;;
12110;SDS011;6119;52.372;8.990;2023-04-15T15:00:26;30.03;;;19.27;;
12110;SDS011;6119;52.372;8.990;2023-04-15T15:03:13;36.00;;;19.70;;
12110;SDS011;6119;52.372;8.990;2023-04-15T15:06:01;34.50;;;19.07;;
12110;SDS011;6119;52.372;8.990;2023-04-15T15:08:48;37.90;;;20.00;;
12110;SDS011;6119;52.372;8.990;2023-04-15T15:11:34;36.77;;;20.87;;
12110;SDS011;6119;52.372;8.990;2023-04-15T15:14:22;34.77;;;20.17;;
12110;SDS011;6119;52.372;8.990;2023-04-15T15:17:08;34.43;;;20.07;;
12110;SDS011;6119;52.372;8.990;2023-04-15T15:19:55;35.10;;;21.07;;
12110;SDS011;6119;52.372;8.990;2023-04-15T15:22:43;35.60;;;19.77;;
12110;SDS011;6119;52.372;8.990;2023-04-15T15:25:29;36.97;;;23.00;;
12110;SDS011;6119;52.372;8.990;2023-04-15T15:28:16;36.33;;;23.40;;
12110;SDS011;6119;52.372;8.990;2023-04-15T15:31:02;37.87;;;22.87;;
12110;SDS011;6119;52.372;8.990;2023-04-15T15:33:49;43.10;;;23.70;;
12110;SDS011;6119;52.372;8.990;2023-04-15T15:36:36;40.33;;;22.90;;
12110;SDS011;6119;52.372;8.990;2023-04-15T15:39:24;37.23;;;23.30;;
12110;SDS011;6119;52.372;8.990;2023-04-15T15:42:11;41.10;;;24.90;;
12110;SDS011;6119;52.372;8.990;2023-04-15T15:44:58;37.23;;;23.53;;
12110;SDS011;6119;52.372;8.990;2023-04-15T15:47:46;35.17;;;20.47;;
12110;SDS011;6119;52.372;8.990;2023-04-15T15:50:33;38.37;;;20.90;;
12110;SDS011;6119;52.372;8.990;2023-04-15T15:53:20;31.50;;;19.53;;
12110;SDS011;6119;52.372;8.990;2023-04-15T15:56:09;36.00;;;20.00;;
12110;SDS011;6119;52.372;8.990;2023-04-15T15:58:56;33.77;;;19.77;;
12110;SDS011;6119;52.372;8.990;2023-04-15T16:01:42;31.63;;;18.97;;
12110;SDS011;6119;52.372;8.990;2023-04-15T16:04:29;35.83;;;18.83;;
12110;SDS011;6119;52.372;8.990;2023-04-15T16:07:16;32.33;;;18.83;;
12110;SDS011;6119;52.372;8.990;2023-04-15T16:10:03;31.77;;;17.77;;
12110;SDS011;6119;52.372;8.990;2023-04-15T16:12:51;30.43;;;18.97;;
12110;SDS011;6119;52.372;8.990;2023-04-15T16:15:38;34.97;;;20.07;;
12110;SDS011;6119;52.372;8.990;2023-04-15T16:18:25;32.57;;;18.53;;
12110;SDS011;6119;52.372;8.990;2023-04-15T16:21:12;36.23;;;19.27;;
12110;SDS011;6119;52.372;8.990;2023-04-15T16:23:58;35.07;;;20.07;;
12110;SDS011;6119;52.372;8.990;2023-04-15T16:26:45;31.93;;;19.53;;
12110;SDS011;6119;52.372;8.990;2023-04-15T16:29:32;34.30;;;19.87;;
12110;SDS011;6119;52.372;8.990;2023-04-15T16:32:20;29.70;;;19.53;;
12110;SDS011;6119;52.372;8.990;2023-04-15T16:35:07;32.53;;;20.10;;
12110;SDS011;6119;52.372;8.990;2023-04-15T16:37:55;30.83;;;19.47;;
12110;SDS011;6119;52.372;8.990;2023-04-15T16:40:41;33.50;;;20.33;;
12110;SDS011;6119;52.372;8.990;2023-04-15T16:43:28;34.23;;;21.10;;
12110;SDS011;6119;52.372;8.990;2023-04-15T16:46:16;32.47;;;19.50;;
12110;SDS011;6119;52.372;8.990;2023-04-15T16:49:03;30.63;;;19.37;;
12110;SDS011;6119;52.372;8.990;2023-04-15T16:51:50;36.00;;;21.90;;
12110;SDS011;6119;52.372;8.990;2023-04-15T16:54:38;33.53;;;20.27;;